Young Endeavour — VMGW — position and weather

sailwx.info

Track history (hours):
 
Tides and Currents Weather Stations Pressure Air Temp Water Temp Dewpoint Dewpoint Depression Visibility Wind Speed Wind Dir Waves Ship Positions

Young Endeavour (Australia)

Ship's website: http://www.youngendeavour.gov.au/

Last reported at 2019-Jun-16 08:56 UTC. Time now 2019-Jun-16 14:37 UTC.
Position N 01°28' E 103°50'.

Length 44 m; beam 7.8 m; draft 4 m.

Type: Other ship. MMSI: 503000136.

Date/timePositionNaut miles runAvg speedWind from/ knotsBaromVisibWave heightAir tempDewpointWater temp
2019-Jun-16 08:56N 01°28' E 103°50'3 8.0
2019-Jun-16 08:30N 01°27' E 103°53'4 7.7
2019-Jun-16 08:00N 01°25' E 103°56'3 6.7
2019-Jun-16 07:30N 01°24' E 103°59'4 6.5
2019-Jun-16 06:54N 01°22' E 104°03'2 5.8
2019-Jun-16 06:30N 01°20' E 104°04'0 0.9
2019-Jun-16 06:00N 01°20' E 104°04'0 0.5
2019-Jun-16 05:30N 01°20' E 104°04'3 5.0
2019-Jun-16 04:58N 01°18' E 104°06'1 2.0
2019-Jun-16 04:27N 01°18' E 104°07'9 5.1
2019-Jun-16 02:43N 01°18' E 104°16'  
Track history (hours):
 
Tides and Currents Weather Stations Pressure Air Temp Water Temp Dewpoint Dewpoint Depression Visibility Wind Speed Wind Dir Waves Ship Positions

Young Endeavour (Australia)

Ship's website: http://www.youngendeavour.gov.au/

Last reported at 2019-Jun-16 08:56 UTC. Time now 2019-Jun-16 14:37 UTC.
Position N 01°28' E 103°50'.

Length 44 m; beam 7.8 m; draft 4 m.

Type: Other ship. MMSI: 503000136.

Date/timePositionNaut miles runAvg speedWind from/ knotsBaromVisibWave heightAir tempDewpointWater temp
2019-Jun-16 08:56N 01°28' E 103°50'3 8.0
2019-Jun-16 08:30N 01°27' E 103°53'4 7.7
2019-Jun-16 08:00N 01°25' E 103°56'3 6.7
2019-Jun-16 07:30N 01°24' E 103°59'4 6.5
2019-Jun-16 06:54N 01°22' E 104°03'2 5.8
2019-Jun-16 06:30N 01°20' E 104°04'0 0.9
2019-Jun-16 06:00N 01°20' E 104°04'0 0.5
2019-Jun-16 05:30N 01°20' E 104°04'3 5.0
2019-Jun-16 04:58N 01°18' E 104°06'1 2.0
2019-Jun-16 04:27N 01°18' E 104°07'9 5.1
2019-Jun-16 02:43N 01°18' E 104°16'  

Dump ship's entire track history